sensor_id;sensor_type;location;lat;lon;timestamp;pressure;altitude;pressure_sealevel;temperature;humidity
65190;BME280;51777;53.570;9.984;2022-09-17T00:01:55;100176.84;;;12.71;100.00
65190;BME280;51777;53.570;9.984;2022-09-17T00:04:20;100173.63;;;12.69;100.00
65190;BME280;51777;53.570;9.984;2022-09-17T00:06:46;100177.88;;;12.62;100.00
65190;BME280;51777;53.570;9.984;2022-09-17T00:09:11;100174.53;;;12.53;100.00
65190;BME280;51777;53.570;9.984;2022-09-17T00:11:39;100180.41;;;12.47;100.00
65190;BME280;51777;53.570;9.984;2022-09-17T00:14:06;100178.97;;;12.45;100.00
65190;BME280;51777;53.570;9.984;2022-09-17T00:16:36;100179.31;;;12.42;100.00
65190;BME280;51777;53.570;9.984;2022-09-17T00:19:04;100183.53;;;12.43;100.00
65190;BME280;51777;53.570;9.984;2022-09-17T00:21:30;100183.16;;;12.46;100.00
65190;BME280;51777;53.570;9.984;2022-09-17T00:23:58;100179.41;;;12.48;100.00
65190;BME280;51777;53.570;9.984;2022-09-17T00:26:24;100182.81;;;12.49;100.00
65190;BME280;51777;53.570;9.984;2022-09-17T00:28:52;100184.59;;;12.48;100.00
65190;BME280;51777;53.570;9.984;2022-09-17T00:31:18;100201.59;;;12.51;100.00
65190;BME280;51777;53.570;9.984;2022-09-17T00:33:44;100196.09;;;12.54;100.00
65190;BME280;51777;53.570;9.984;2022-09-17T00:36:09;100195.28;;;12.53;100.00
65190;BME280;51777;53.570;9.984;2022-09-17T00:38:35;100194.31;;;12.54;100.00
65190;BME280;51777;53.570;9.984;2022-09-17T00:41:02;100190.09;;;12.53;100.00
65190;BME280;51777;53.570;9.984;2022-09-17T00:43:58;100192.53;;;12.55;100.00
65190;BME280;51777;53.570;9.984;2022-09-17T00:46:37;100206.63;;;12.52;100.00
65190;BME280;51777;53.570;9.984;2022-09-17T00:49:09;100204.09;;;12.44;100.00
65190;BME280;51777;53.570;9.984;2022-09-17T00:51:40;100210.91;;;12.37;100.00
65190;BME280;51777;53.570;9.984;2022-09-17T00:54:09;100206.25;;;12.32;100.00
65190;BME280;51777;53.570;9.984;2022-09-17T00:56:37;100208.38;;;12.29;100.00
65190;BME280;51777;53.570;9.984;2022-09-17T00:59:03;100204.66;;;12.23;100.00
65190;BME280;51777;53.570;9.984;2022-09-17T01:01:30;100211.00;;;12.21;100.00
65190;BME280;51777;53.570;9.984;2022-09-17T01:03:55;100208.94;;;12.16;100.00
65190;BME280;51777;53.570;9.984;2022-09-17T01:23:20;100204.50;;;11.86;100.00
65190;BME280;51777;53.570;9.984;2022-09-17T01:25:57;100206.44;;;11.84;100.00
65190;BME280;51777;53.570;9.984;2022-09-17T01:28:55;100205.47;;;11.85;100.00
65190;BME280;51777;53.570;9.984;2022-09-17T01:31:32;100210.00;;;11.83;100.00
65190;BME280;51777;53.570;9.984;2022-09-17T01:34:21;100211.00;;;11.82;100.00
65190;BME280;51777;53.570;9.984;2022-09-17T01:39:36;100208.03;;;11.76;100.00
65190;BME280;51777;53.570;9.984;2022-09-17T01:44:58;100211.59;;;11.75;100.00
65190;BME280;51777;53.570;9.984;2022-09-17T01:50:00;100217.78;;;11.83;100.00
65190;BME280;51777;53.570;9.984;2022-09-17T01:52:31;100213.88;;;11.87;100.00
65190;BME280;51777;53.570;9.984;2022-09-17T01:55:02;100219.06;;;11.87;100.00
65190;BME280;51777;53.570;9.984;2022-09-17T01:57:39;100223.59;;;11.85;100.00
65190;BME280;51777;53.570;9.984;2022-09-17T02:00:10;100230.06;;;11.89;100.00
65190;BME280;51777;53.570;9.984;2022-09-17T02:02:39;100229.75;;;11.92;100.00
65190;BME280;51777;53.570;9.984;2022-09-17T02:05:17;100238.50;;;11.91;100.00
65190;BME280;51777;53.570;9.984;2022-09-17T02:07:49;100232.66;;;11.89;100.00
65190;BME280;51777;53.570;9.984;2022-09-17T02:10:19;100233.31;;;11.83;100.00
65190;BME280;51777;53.570;9.984;2022-09-17T02:12:54;100234.91;;;11.75;100.00
65190;BME280;51777;53.570;9.984;2022-09-17T02:15:34;100237.38;;;11.69;100.00
65190;BME280;51777;53.570;9.984;2022-09-17T02:18:25;100228.16;;;11.66;100.00
65190;BME280;51777;53.570;9.984;2022-09-17T02:24:26;100233.34;;;11.66;100.00
65190;BME280;51777;53.570;9.984;2022-09-17T02:27:04;100234.63;;;11.70;100.00
65190;BME280;51777;53.570;9.984;2022-09-17T02:29:36;100241.72;;;11.76;100.00
65190;BME280;51777;53.570;9.984;2022-09-17T02:32:03;100235.91;;;11.74;100.00
65190;BME280;51777;53.570;9.984;2022-09-17T02:34:28;100244.81;;;11.72;100.00
65190;BME280;51777;53.570;9.984;2022-09-17T02:36:55;100233.63;;;11.71;100.00
65190;BME280;51777;53.570;9.984;2022-09-17T02:39:23;100241.41;;;11.71;100.00
65190;BME280;51777;53.570;9.984;2022-09-17T02:45:15;100242.06;;;11.65;100.00
65190;BME280;51777;53.570;9.984;2022-09-17T02:47:49;100236.91;;;11.57;100.00
65190;BME280;51777;53.570;9.984;2022-09-17T02:50:36;100238.06;;;11.55;100.00
65190;BME280;51777;53.570;9.984;2022-09-17T02:58:44;100240.31;;;11.58;100.00
65190;BME280;51777;53.570;9.984;2022-09-17T03:01:20;100235.13;;;11.58;100.00
65190;BME280;51777;53.570;9.984;2022-09-17T03:03:48;100234.78;;;11.61;100.00
65190;BME280;51777;53.570;9.984;2022-09-17T03:06:16;100233.97;;;11.60;100.00
65190;BME280;51777;53.570;9.984;2022-09-17T03:08:42;100230.59;;;11.52;100.00
65190;BME280;51777;53.570;9.984;2022-09-17T03:11:10;100235.13;;;11.50;100.00
65190;BME280;51777;53.570;9.984;2022-09-17T03:13:37;100234.66;;;11.46;100.00
65190;BME280;51777;53.570;9.984;2022-09-17T03:16:03;100237.88;;;11.48;100.00
65190;BME280;51777;53.570;9.984;2022-09-17T03:18:29;100229.78;;;11.51;100.00
65190;BME280;51777;53.570;9.984;2022-09-17T03:20:54;100226.38;;;11.51;100.00
65190;BME280;51777;53.570;9.984;2022-09-17T03:23:20;100228.16;;;11.50;100.00
65190;BME280;51777;53.570;9.984;2022-09-17T03:25:45;100236.91;;;11.57;100.00
65190;BME280;51777;53.570;9.984;2022-09-17T03:28:13;100242.41;;;11.54;100.00
65190;BME280;51777;53.570;9.984;2022-09-17T03:30:38;100242.09;;;11.49;100.00
65190;BME280;51777;53.570;9.984;2022-09-17T03:33:03;100244.19;;;11.54;100.00
65190;BME280;51777;53.570;9.984;2022-09-17T03:35:29;100240.00;;;11.44;100.00
65190;BME280;51777;53.570;9.984;2022-09-17T03:37:54;100240.97;;;11.43;100.00
65190;BME280;51777;53.570;9.984;2022-09-17T03:40:20;100245.97;;;11.45;100.00
65190;BME280;51777;53.570;9.984;2022-09-17T03:42:45;100243.22;;;11.46;100.00
65190;BME280;51777;53.570;9.984;2022-09-17T03:45:11;100246.78;;;11.45;100.00
65190;BME280;51777;53.570;9.984;2022-09-17T03:47:36;100250.19;;;11.46;100.00
65190;BME280;51777;53.570;9.984;2022-09-17T03:50:03;100252.31;;;11.42;100.00
65190;BME280;51777;53.570;9.984;2022-09-17T03:52:28;100246.47;;;11.32;100.00
65190;BME280;51777;53.570;9.984;2022-09-17T03:54:54;100244.53;;;11.34;100.00
65190;BME280;51777;53.570;9.984;2022-09-17T03:57:19;100247.75;;;11.36;100.00
65190;BME280;51777;53.570;9.984;2022-09-17T03:59:44;100251.78;;;11.39;100.00
65190;BME280;51777;53.570;9.984;2022-09-17T04:02:10;100255.53;;;11.44;100.00
65190;BME280;51777;53.570;9.984;2022-09-17T04:04:35;100262.47;;;11.36;100.00
65190;BME280;51777;53.570;9.984;2022-09-17T04:07:01;100258.44;;;11.33;100.00
65190;BME280;51777;53.570;9.984;2022-09-17T04:09:26;100251.78;;;11.39;100.00
65190;BME280;51777;53.570;9.984;2022-09-17T04:11:51;100255.69;;;11.35;100.00
65190;BME280;51777;53.570;9.984;2022-09-17T04:14:17;100251.31;;;11.35;100.00
65190;BME280;51777;53.570;9.984;2022-09-17T04:16:43;100259.59;;;11.31;100.00
65190;BME280;51777;53.570;9.984;2022-09-17T04:19:09;100249.53;;;11.28;100.00
65190;BME280;51777;53.570;9.984;2022-09-17T04:21:34;100258.94;;;11.29;100.00
65190;BME280;51777;53.570;9.984;2022-09-17T04:23:59;100254.41;;;11.31;100.00
65190;BME280;51777;53.570;9.984;2022-09-17T04:26:25;100250.53;;;11.18;100.00
65190;BME280;51777;53.570;9.984;2022-09-17T04:28:50;100252.13;;;11.20;100.00
65190;BME280;51777;53.570;9.984;2022-09-17T04:31:16;100265.72;;;11.22;100.00
65190;BME280;51777;53.570;9.984;2022-09-17T04:33:41;100266.19;;;11.25;100.00
65190;BME280;51777;53.570;9.984;2022-09-17T04:36:06;100272.19;;;11.26;100.00
65190;BME280;51777;53.570;9.984;2022-09-17T04:38:32;100277.34;;;11.26;100.00
65190;BME280;51777;53.570;9.984;2022-09-17T04:40:58;100276.38;;;11.27;100.00
65190;BME280;51777;53.570;9.984;2022-09-17T04:43:24;100282.69;;;11.24;100.00
65190;BME280;51777;53.570;9.984;2022-09-17T04:45:50;100282.69;;;11.24;100.00
65190;BME280;51777;53.570;9.984;2022-09-17T04:48:16;100279.31;;;11.24;100.00
65190;BME280;51777;53.570;9.984;2022-09-17T04:50:42;100297.59;;;11.22;100.00
65190;BME280;51777;53.570;9.984;2022-09-17T04:53:08;100290.94;;;11.20;100.00
65190;BME280;51777;53.570;9.984;2022-09-17T04:55:33;100283.34;;;11.18;100.00
65190;BME280;51777;53.570;9.984;2022-09-17T04:57:59;100278.97;;;11.10;100.00
65190;BME280;51777;53.570;9.984;2022-09-17T05:00:24;100278.31;;;11.00;100.00
65190;BME280;51777;53.570;9.984;2022-09-17T05:02:52;100282.34;;;10.95;100.00
65190;BME280;51777;53.570;9.984;2022-09-17T05:05:19;100290.59;;;10.98;100.00
65190;BME280;51777;53.570;9.984;2022-09-17T05:07:45;100288.00;;;10.98;100.00
65190;BME280;51777;53.570;9.984;2022-09-17T05:10:13;100286.72;;;11.02;100.00
65190;BME280;51777;53.570;9.984;2022-09-17T05:12:39;100280.41;;;10.97;100.00
65190;BME280;51777;53.570;9.984;2022-09-17T05:15:04;100283.00;;;10.97;100.00
65190;BME280;51777;53.570;9.984;2022-09-17T05:17:30;100282.66;;;10.92;100.00
65190;BME280;51777;53.570;9.984;2022-09-17T05:19:56;100278.31;;;10.92;100.00
65190;BME280;51777;53.570;9.984;2022-09-17T05:22:21;100292.06;;;10.93;100.00
65190;BME280;51777;53.570;9.984;2022-09-17T05:24:46;100291.25;;;10.92;100.00
65190;BME280;51777;53.570;9.984;2022-09-17T05:27:12;100274.91;;;10.92;100.00
65190;BME280;51777;53.570;9.984;2022-09-17T05:29:37;100283.47;;;11.00;100.00
65190;BME280;51777;53.570;9.984;2022-09-17T05:32:04;100288.31;;;10.95;100.00
65190;BME280;51777;53.570;9.984;2022-09-17T05:34:30;100296.25;;;11.02;100.00
65190;BME280;51777;53.570;9.984;2022-09-17T05:36:55;100299.03;;;11.08;100.00
65190;BME280;51777;53.570;9.984;2022-09-17T05:39:21;100292.72;;;11.19;100.00
65190;BME280;51777;53.570;9.984;2022-09-17T05:41:52;100299.38;;;11.30;100.00
65190;BME280;51777;53.570;9.984;2022-09-17T05:44:18;100297.09;;;11.35;100.00
65190;BME280;51777;53.570;9.984;2022-09-17T05:46:44;100302.13;;;11.44;100.00
65190;BME280;51777;53.570;9.984;2022-09-17T05:49:10;100308.91;;;11.45;100.00
65190;BME280;51777;53.570;9.984;2022-09-17T05:51:35;100306.81;;;11.33;100.00
65190;BME280;51777;53.570;9.984;2022-09-17T05:54:01;100304.84;;;11.27;100.00
65190;BME280;51777;53.570;9.984;2022-09-17T05:56:26;100301.94;;;11.22;100.00
65190;BME280;51777;53.570;9.984;2022-09-17T05:58:55;100311.00;;;11.17;100.00
65190;BME280;51777;53.570;9.984;2022-09-17T06:01:21;100308.09;;;11.21;100.00
65190;BME280;51777;53.570;9.984;2022-09-17T06:03:48;100315.72;;;11.30;100.00
65190;BME280;51777;53.570;9.984;2022-09-17T06:06:14;100317.50;;;11.30;100.00
65190;BME280;51777;53.570;9.984;2022-09-17T06:08:39;100330.44;;;11.30;100.00
65190;BME280;51777;53.570;9.984;2022-09-17T06:11:05;100339.81;;;11.31;100.00
65190;BME280;51777;53.570;9.984;2022-09-17T06:13:32;100323.28;;;11.15;100.00
65190;BME280;51777;53.570;9.984;2022-09-17T06:15:58;100318.44;;;11.04;100.00
65190;BME280;51777;53.570;9.984;2022-09-17T06:18:23;100314.84;;;10.97;100.00
65190;BME280;51777;53.570;9.984;2022-09-17T06:21:07;100317.59;;;10.96;100.00
65190;BME280;51777;53.570;9.984;2022-09-17T06:23:33;100329.41;;;11.06;100.00
65190;BME280;51777;53.570;9.984;2022-09-17T06:26:04;100326.47;;;11.01;100.00
65190;BME280;51777;53.570;9.984;2022-09-17T06:28:30;100326.00;;;10.98;100.00
65190;BME280;51777;53.570;9.984;2022-09-17T06:31:00;100317.56;;;10.87;100.00
65190;BME280;51777;53.570;9.984;2022-09-17T06:33:26;100326.94;;;10.88;100.00
65190;BME280;51777;53.570;9.984;2022-09-17T06:35:56;100334.41;;;10.92;100.00
65190;BME280;51777;53.570;9.984;2022-09-17T06:38:22;100342.50;;;10.97;100.00
65190;BME280;51777;53.570;9.984;2022-09-17T06:40:51;100336.19;;;10.99;100.00
65190;BME280;51777;53.570;9.984;2022-09-17T06:43:17;100338.63;;;11.09;100.00
65190;BME280;51777;53.570;9.984;2022-09-17T06:45:43;100339.78;;;11.23;100.00
65190;BME280;51777;53.570;9.984;2022-09-17T06:48:09;100345.16;;;11.45;100.00
65190;BME280;51777;53.570;9.984;2022-09-17T06:50:34;100347.91;;;11.60;100.00
65190;BME280;51777;53.570;9.984;2022-09-17T06:53:00;100346.63;;;11.64;100.00
65190;BME280;51777;53.570;9.984;2022-09-17T06:55:25;100346.28;;;11.75;100.00
65190;BME280;51777;53.570;9.984;2022-09-17T06:57:52;100335.00;;;11.85;100.00
65190;BME280;51777;53.570;9.984;2022-09-17T07:00:18;100339.19;;;11.94;100.00
65190;BME280;51777;53.570;9.984;2022-09-17T07:02:53;100346.31;;;13.26;100.00
65190;BME280;51777;53.570;9.984;2022-09-17T07:05:19;100351.84;;;15.37;95.94
65190;BME280;51777;53.570;9.984;2022-09-17T07:07:44;100350.41;;;18.15;85.15
65190;BME280;51777;53.570;9.984;2022-09-17T07:10:10;100348.66;;;19.93;72.33
65190;BME280;51777;53.570;9.984;2022-09-17T07:12:39;100367.06;;;21.15;62.92
65190;BME280;51777;53.570;9.984;2022-09-17T07:15:05;100365.00;;;21.47;58.82
65190;BME280;51777;53.570;9.984;2022-09-17T07:17:30;100371.34;;;20.97;58.86
65190;BME280;51777;53.570;9.984;2022-09-17T07:19:56;100369.59;;;18.73;66.11
65190;BME280;51777;53.570;9.984;2022-09-17T07:22:23;100372.53;;;17.40;71.31
65190;BME280;51777;53.570;9.984;2022-09-17T07:24:49;100370.88;;;16.36;76.20
65190;BME280;51777;53.570;9.984;2022-09-17T07:27:14;100364.09;;;15.79;80.67
65190;BME280;51777;53.570;9.984;2022-09-17T07:29:39;100372.97;;;15.06;83.17
65190;BME280;51777;53.570;9.984;2022-09-17T07:32:05;100376.44;;;14.62;85.33
65190;BME280;51777;53.570;9.984;2022-09-17T07:34:31;100374.75;;;14.40;88.83
65190;BME280;51777;53.570;9.984;2022-09-17T07:36:57;100371.16;;;14.41;89.51
65190;BME280;51777;53.570;9.984;2022-09-17T07:39:22;100376.50;;;14.10;89.62
65190;BME280;51777;53.570;9.984;2022-09-17T07:41:48;100374.69;;;14.10;92.09
65190;BME280;51777;53.570;9.984;2022-09-17T07:44:13;100367.31;;;13.99;90.95
65190;BME280;51777;53.570;9.984;2022-09-17T07:46:39;100355.63;;;14.03;92.68
65190;BME280;51777;53.570;9.984;2022-09-17T07:49:04;100365.59;;;14.29;94.80
65190;BME280;51777;53.570;9.984;2022-09-17T07:51:29;100362.06;;;14.37;92.03
65190;BME280;51777;53.570;9.984;2022-09-17T07:53:57;100350.97;;;14.73;87.33
65190;BME280;51777;53.570;9.984;2022-09-17T07:56:25;100359.38;;;16.24;78.23
65190;BME280;51777;53.570;9.984;2022-09-17T07:58:51;100374.13;;;17.60;74.28
65190;BME280;51777;53.570;9.984;2022-09-17T08:01:16;100379.03;;;18.81;67.29
65190;BME280;51777;53.570;9.984;2022-09-17T08:03:47;100374.72;;;19.31;62.88
65190;BME280;51777;53.570;9.984;2022-09-17T08:06:15;100379.88;;;20.19;58.76
65190;BME280;51777;53.570;9.984;2022-09-17T08:08:42;100377.94;;;20.88;59.04
65190;BME280;51777;53.570;9.984;2022-09-17T08:11:10;100380.78;;;20.87;56.14
65190;BME280;51777;53.570;9.984;2022-09-17T08:13:36;100382.78;;;20.73;55.02
65190;BME280;51777;53.570;9.984;2022-09-17T08:16:10;100361.25;;;18.18;63.08
65190;BME280;51777;53.570;9.984;2022-09-17T08:18:39;100360.34;;;16.99;69.42
65190;BME280;51777;53.570;9.984;2022-09-17T08:21:06;100352.88;;;16.41;71.92
65190;BME280;51777;53.570;9.984;2022-09-17T08:23:35;100346.56;;;16.29;73.44
65190;BME280;51777;53.570;9.984;2022-09-17T08:26:01;100346.47;;;15.60;78.06
65190;BME280;51777;53.570;9.984;2022-09-17T08:28:28;100348.75;;;15.63;77.92
65190;BME280;51777;53.570;9.984;2022-09-17T08:31:02;100347.22;;;15.33;77.04
65190;BME280;51777;53.570;9.984;2022-09-17T08:33:32;100341.19;;;15.32;78.81
65190;BME280;51777;53.570;9.984;2022-09-17T08:35:58;100345.72;;;15.45;78.52
65190;BME280;51777;53.570;9.984;2022-09-17T08:38:25;100345.75;;;15.66;75.44
65190;BME280;51777;53.570;9.984;2022-09-17T08:43:40;100336.53;;;16.26;77.11
65190;BME280;51777;53.570;9.984;2022-09-17T08:46:09;100345.38;;;17.60;69.49
65190;BME280;51777;53.570;9.984;2022-09-17T08:48:48;100341.38;;;18.75;63.79
65190;BME280;51777;53.570;9.984;2022-09-17T08:51:41;100346.19;;;19.17;62.01
65190;BME280;51777;53.570;9.984;2022-09-17T08:54:11;100340.34;;;17.39;66.82
65190;BME280;51777;53.570;9.984;2022-09-17T08:56:44;100347.31;;;16.51;71.13
65190;BME280;51777;53.570;9.984;2022-09-17T09:02:11;100332.50;;;14.67;80.46
65190;BME280;51777;53.570;9.984;2022-09-17T09:05:07;100341.75;;;15.27;80.38
65190;BME280;51777;53.570;9.984;2022-09-17T09:07:44;100325.66;;;14.81;82.55
65190;BME280;51777;53.570;9.984;2022-09-17T09:10:27;100321.19;;;14.31;80.34
65190;BME280;51777;53.570;9.984;2022-09-17T09:12:58;100327.19;;;14.31;80.71
65190;BME280;51777;53.570;9.984;2022-09-17T09:15:37;100336.00;;;14.16;80.19
65190;BME280;51777;53.570;9.984;2022-09-17T09:18:17;100334.47;;;13.69;81.91
65190;BME280;51777;53.570;9.984;2022-09-17T09:20:52;100321.88;;;13.95;82.57
65190;BME280;51777;53.570;9.984;2022-09-17T09:34:04;100338.94;;;17.43;64.57
65190;BME280;51777;53.570;9.984;2022-09-17T09:36:31;100342.00;;;19.09;58.80
65190;BME280;51777;53.570;9.984;2022-09-17T09:39:06;100351.13;;;19.31;57.05
65190;BME280;51777;53.570;9.984;2022-09-17T09:42:07;100349.19;;;20.38;52.34
65190;BME280;51777;53.570;9.984;2022-09-17T09:44:35;100354.28;;;21.60;50.53
65190;BME280;51777;53.570;9.984;2022-09-17T09:57:47;100356.06;;;17.66;58.46
65190;BME280;51777;53.570;9.984;2022-09-17T10:00:30;100347.50;;;16.50;61.75
65190;BME280;51777;53.570;9.984;2022-09-17T10:03:17;100348.94;;;15.90;65.66
65190;BME280;51777;53.570;9.984;2022-09-17T10:05:58;100346.97;;;17.48;61.17
65190;BME280;51777;53.570;9.984;2022-09-17T10:08:26;100366.44;;;19.34;53.37
65190;BME280;51777;53.570;9.984;2022-09-17T10:10:56;100355.44;;;17.97;56.68
65190;BME280;51777;53.570;9.984;2022-09-17T10:13:23;100355.06;;;18.00;58.11
65190;BME280;51777;53.570;9.984;2022-09-17T10:15:48;100367.22;;;17.00;60.17
65190;BME280;51777;53.570;9.984;2022-09-17T10:18:16;100351.13;;;16.62;63.54
65190;BME280;51777;53.570;9.984;2022-09-17T10:20:54;100342.69;;;16.19;66.49
65190;BME280;51777;53.570;9.984;2022-09-17T10:23:22;100338.09;;;17.16;62.37
65190;BME280;51777;53.570;9.984;2022-09-17T10:25:48;100331.41;;;16.94;62.46
65190;BME280;51777;53.570;9.984;2022-09-17T10:28:27;100331.38;;;16.81;64.52
65190;BME280;51777;53.570;9.984;2022-09-17T10:30:55;100326.91;;;16.68;64.42
65190;BME280;51777;53.570;9.984;2022-09-17T10:33:24;100324.56;;;16.04;66.90
65190;BME280;51777;53.570;9.984;2022-09-17T10:36:01;100321.53;;;16.00;66.91
65190;BME280;51777;53.570;9.984;2022-09-17T10:38:41;100320.75;;;16.06;68.87
65190;BME280;51777;53.570;9.984;2022-09-17T10:41:20;100329.72;;;15.26;71.04
65190;BME280;51777;53.570;9.984;2022-09-17T10:43:47;100329.94;;;14.89;71.35
65190;BME280;51777;53.570;9.984;2022-09-17T10:46:15;100323.59;;;14.77;72.63
65190;BME280;51777;53.570;9.984;2022-09-17T10:48:45;100320.16;;;15.12;72.95
65190;BME280;51777;53.570;9.984;2022-09-17T10:51:21;100322.63;;;15.84;69.88
65190;BME280;51777;53.570;9.984;2022-09-17T10:56:29;100306.94;;;15.78;68.11
65190;BME280;51777;53.570;9.984;2022-09-17T11:02:02;100294.38;;;14.96;73.19
65190;BME280;51777;53.570;9.984;2022-09-17T11:07:33;100297.03;;;15.45;74.66
65190;BME280;51777;53.570;9.984;2022-09-17T11:10:35;100297.63;;;15.47;75.58
65190;BME280;51777;53.570;9.984;2022-09-17T11:16:01;100289.53;;;15.36;72.86
65190;BME280;51777;53.570;9.984;2022-09-17T11:21:34;100291.28;;;17.81;64.60
65190;BME280;51777;53.570;9.984;2022-09-17T11:29:39;100312.09;;;21.25;53.89
65190;BME280;51777;53.570;9.984;2022-09-17T11:35:08;100306.63;;;18.93;56.85
65190;BME280;51777;53.570;9.984;2022-09-17T11:41:25;100298.53;;;17.72;61.17
65190;BME280;51777;53.570;9.984;2022-09-17T11:43:33;100299.22;;;18.32;60.76
65190;BME280;51777;53.570;9.984;2022-09-17T11:49:22;100305.53;;;18.69;58.68
65190;BME280;51777;53.570;9.984;2022-09-17T11:52:04;100298.50;;;18.12;61.82
65190;BME280;51777;53.570;9.984;2022-09-17T11:54:51;100308.78;;;17.34;63.71
65190;BME280;51777;53.570;9.984;2022-09-17T11:57:21;100305.41;;;16.66;67.28
65190;BME280;51777;53.570;9.984;2022-09-17T12:00:04;100297.53;;;15.83;72.09
65190;BME280;51777;53.570;9.984;2022-09-17T12:05:20;100292.22;;;15.70;72.65
65190;BME280;51777;53.570;9.984;2022-09-17T12:11:10;100294.16;;;16.24;72.63
65190;BME280;51777;53.570;9.984;2022-09-17T12:13:41;100286.38;;;18.24;66.67
65190;BME280;51777;53.570;9.984;2022-09-17T12:16:20;100292.31;;;20.14;56.74
65190;BME280;51777;53.570;9.984;2022-09-17T12:21:38;100299.56;;;23.06;47.04
65190;BME280;51777;53.570;9.984;2022-09-17T12:30:03;100274.84;;;19.40;56.34
65190;BME280;51777;53.570;9.984;2022-09-17T12:35:56;100256.69;;;16.99;69.03
65190;BME280;51777;53.570;9.984;2022-09-17T12:57:39;100248.66;;;17.34;69.34
65190;BME280;51777;53.570;9.984;2022-09-17T13:00:15;100268.66;;;20.32;61.17
65190;BME280;51777;53.570;9.984;2022-09-17T13:05:53;100242.59;;;18.83;62.24
65190;BME280;51777;53.570;9.984;2022-09-17T13:21:52;100218.34;;;14.14;96.21
65190;BME280;51777;53.570;9.984;2022-09-17T13:24:22;100220.59;;;13.58;100.00
65190;BME280;51777;53.570;9.984;2022-09-17T13:26:53;100245.34;;;13.08;100.00
65190;BME280;51777;53.570;9.984;2022-09-17T13:40:23;100233.56;;;14.82;100.00
65190;BME280;51777;53.570;9.984;2022-09-17T13:45:29;100240.00;;;15.08;100.00
65190;BME280;51777;53.570;9.984;2022-09-17T13:50:37;100229.69;;;16.11;92.38
65190;BME280;51777;53.570;9.984;2022-09-17T13:55:51;100230.53;;;19.06;85.84
65190;BME280;51777;53.570;9.984;2022-09-17T14:01:02;100250.59;;;24.26;59.86
65190;BME280;51777;53.570;9.984;2022-09-17T14:08:49;100226.72;;;18.77;73.43
65190;BME280;51777;53.570;9.984;2022-09-17T14:13:49;100239.78;;;16.82;86.81
65190;BME280;51777;53.570;9.984;2022-09-17T14:32:39;100253.69;;;17.42;83.18
65190;BME280;51777;53.570;9.984;2022-09-17T14:40:46;100279.97;;;16.75;83.75
65190;BME280;51777;53.570;9.984;2022-09-17T14:43:27;100276.72;;;15.62;89.83
65190;BME280;51777;53.570;9.984;2022-09-17T14:46:02;100279.78;;;14.80;94.18
65190;BME280;51777;53.570;9.984;2022-09-17T14:51:29;100284.19;;;14.14;100.00
65190;BME280;51777;53.570;9.984;2022-09-17T14:54:11;100286.38;;;13.73;100.00
65190;BME280;51777;53.570;9.984;2022-09-17T14:57:02;100277.03;;;13.64;100.00
65190;BME280;51777;53.570;9.984;2022-09-17T14:59:45;100283.16;;;13.33;100.00
65190;BME280;51777;53.570;9.984;2022-09-17T15:02:35;100271.81;;;13.26;100.00
65190;BME280;51777;53.570;9.984;2022-09-17T15:08:09;100274.59;;;13.25;100.00
65190;BME280;51777;53.570;9.984;2022-09-17T15:13:36;100276.38;;;13.47;100.00
65190;BME280;51777;53.570;9.984;2022-09-17T15:16:29;100278.56;;;13.73;100.00
65190;BME280;51777;53.570;9.984;2022-09-17T15:19:00;100280.94;;;13.97;100.00
65190;BME280;51777;53.570;9.984;2022-09-17T15:21:38;100280.47;;;13.79;100.00
65190;BME280;51777;53.570;9.984;2022-09-17T15:24:17;100273.00;;;13.61;100.00
65190;BME280;51777;53.570;9.984;2022-09-17T15:26:51;100273.13;;;13.68;100.00
65190;BME280;51777;53.570;9.984;2022-09-17T15:31:53;100278.31;;;13.68;100.00
65190;BME280;51777;53.570;9.984;2022-09-17T15:34:21;100272.66;;;13.64;100.00
65190;BME280;51777;53.570;9.984;2022-09-17T15:37:15;100281.56;;;13.47;100.00
65190;BME280;51777;53.570;9.984;2022-09-17T15:39:47;100288.97;;;13.35;100.00
65190;BME280;51777;53.570;9.984;2022-09-17T15:42:24;100295.91;;;13.43;100.00
65190;BME280;51777;53.570;9.984;2022-09-17T15:44:50;100302.06;;;13.42;100.00
65190;BME280;51777;53.570;9.984;2022-09-17T15:47:36;100294.91;;;13.44;100.00
65190;BME280;51777;53.570;9.984;2022-09-17T15:50:14;100305.75;;;13.47;100.00
65190;BME280;51777;53.570;9.984;2022-09-17T15:52:40;100301.44;;;13.40;100.00
65190;BME280;51777;53.570;9.984;2022-09-17T15:55:42;100298.31;;;13.44;100.00
65190;BME280;51777;53.570;9.984;2022-09-17T16:08:57;100320.22;;;13.27;100.00
65190;BME280;51777;53.570;9.984;2022-09-17T16:11:25;100316.31;;;13.23;100.00
65190;BME280;51777;53.570;9.984;2022-09-17T16:13:55;100327.25;;;13.10;100.00
65190;BME280;51777;53.570;9.984;2022-09-17T16:16:36;100332.25;;;13.20;100.00
65190;BME280;51777;53.570;9.984;2022-09-17T16:19:03;100332.88;;;13.22;100.00
65190;BME280;51777;53.570;9.984;2022-09-17T16:21:30;100341.97;;;13.18;100.00
65190;BME280;51777;53.570;9.984;2022-09-17T16:24:01;100337.97;;;13.07;100.00
65190;BME280;51777;53.570;9.984;2022-09-17T16:26:40;100332.97;;;13.06;100.00
65190;BME280;51777;53.570;9.984;2022-09-17T16:29:17;100340.56;;;13.07;100.00
65190;BME280;51777;53.570;9.984;2022-09-17T16:31:47;100341.72;;;13.05;100.00
65190;BME280;51777;53.570;9.984;2022-09-17T16:34:14;100345.97;;;12.98;100.00
65190;BME280;51777;53.570;9.984;2022-09-17T16:36:39;100337.56;;;12.96;100.00
65190;BME280;51777;53.570;9.984;2022-09-17T16:39:07;100346.84;;;12.90;100.00
65190;BME280;51777;53.570;9.984;2022-09-17T16:41:33;100342.28;;;12.92;100.00